Fort Sevcenko, Kazakhstan
Current Conditions -  °F | °C
As of 1:00 PM on Friday 19 Dec 2014 (Local Time) from UATE Reporting Station
Broken Clouds Broken Clouds  
Wind Chill: 34°   Ceiling: 1200
Heat Index: 41°   Visibility: 6mi
Dew Point: 34°   Wind: 13mph
Humidity: 76%   Direction: 120°ESE
Pressure: 30.09"   Gusts: NA
Location:  44.55°N, 50.25°E
Report Text: UATE 190900Z 12006MPS 9999 BKN012 05/01 Q1019 R12/0///70 NOSIGRMK QFE762/1017
Loading
Personal Weather Stations






























Interactive Weather Map New forecast layout! Learn more

10-Day Weather Forecast

Advertisements
Track Severe Weather on mobile